Home > Products > Valid Products > MTR

000
SAGM31 PGUM 241155
MTRGUM
METAR PGUM 241154Z 06009KT 6SM -RA FEW009 OVC038 25/24 A2990 RMK AO2
SLP115 P0009 60029 70029 T02500239 10317 20250 51013




000
SAGM31 PGUM 241155
MTRGUM
METAR PGUM 241154Z 06009KT 6SM -RA FEW009 OVC038 25/24 A2990 RMK AO2
SLP115 P0009 60029 70029 T02500239 10317 20250 51013





000
SAGM31 PGUM 241117
MTRGUM
SPECI PGUM 241116Z 07007KT 4SM RA FEW007 BKN034 OVC042 25/24 A2989
RMK AO2 P0003




000
SAGM31 PGUM 241117
MTRGUM
SPECI PGUM 241116Z 07007KT 4SM RA FEW007 BKN034 OVC042 25/24 A2989
RMK AO2 P0003





000
SAGM31 PGUM 241055
MTRGUM
METAR PGUM 241054Z 08010KT 5SM -RA FEW007 BKN020 OVC042 25/24 A2989
RMK AO2 RAB23 SLP112 P0002 T02500244




000
SAGM31 PGUM 241055
MTRGUM
METAR PGUM 241054Z 08010KT 5SM -RA FEW007 BKN020 OVC042 25/24 A2989
RMK AO2 RAB23 SLP112 P0002 T02500244





000
SAGM31 PGUM 241047
MTRGUM
SPECI PGUM 241046Z 08010KT 9SM FEW007 BKN035 OVC050 26/24 A2988 RMK
AO2 RAB23E41 P0000




000
SAGM31 PGUM 241047
MTRGUM
SPECI PGUM 241046Z 08010KT 9SM FEW007 BKN035 OVC050 26/24 A2988 RMK
AO2 RAB23E41 P0000





000
SAGM31 PGUM 240955
MTRGUM
METAR PGUM 240954Z 08010KT 10SM OVC042 26/24 A2987 RMK AO2 RAE36
SLP108 P0009 T02560239





000
SAGM31 PGUM 240955
MTRGUM
METAR PGUM 240954Z 08010KT 10SM OVC042 26/24 A2987 RMK AO2 RAE36
SLP108 P0009 T02560239




000
SAGM31 PGUM 240855
MTRGUM
METAR PGUM 240854Z 07010G19KT 7SM RA SCT039 OVC047 27/24 A2986 RMK
AO2 RAB24 SLP102 P0000 60000 T02670244 53017




000
SAGM31 PGUM 240855
MTRGUM
METAR PGUM 240854Z 07010G19KT 7SM RA SCT039 OVC047 27/24 A2986 RMK
AO2 RAB24 SLP102 P0000 60000 T02670244 53017





000
SAGM31 PGUM 240755
MTRGUM
METAR PGUM 240754Z 05013KT 10SM SCT029 BKN040 BKN075 29/22 A2983 RMK
AO2 SLP092 T02940222




000
SAGM31 PGUM 240755
MTRGUM
METAR PGUM 240754Z 05013KT 10SM SCT029 BKN040 BKN075 29/22 A2983 RMK
AO2 SLP092 T02940222





000
SAGM31 PGUM 240655
MTRGUM
METAR PGUM 240654Z 04013KT 10SM SCT032 BKN090 31/22 A2981 RMK AO2
SLP086 T03060222




000
SAGM31 PGUM 240655
MTRGUM
METAR PGUM 240654Z 04013KT 10SM SCT032 BKN090 31/22 A2981 RMK AO2
SLP086 T03060222





000
SAGM31 PGUM 240555
MTRGUM
METAR PGUM 240554Z 05012G17KT 10SM FEW027 SCT048 31/22 A2981 RMK AO2
SLP085 T03110217 10322 20306 56012




000
SAGM31 PGUM 240555
MTRGUM
METAR PGUM 240554Z 05012G17KT 10SM FEW027 SCT048 31/22 A2981 RMK AO2
SLP085 T03110217 10322 20306 56012





000
SAGM31 PGUM 240455
MTRGUM
METAR PGUM 240454Z 05012KT 10SM SCT034 BKN041 OVC048 31/22 A2981 RMK
AO2 SLP087 T03060222





000
SAGM31 PGUM 240355
MTRGUM
METAR PGUM 240354Z 09011KT 10SM BKN034 BKN048 31/22 A2983 RMK AO2
SLP091 T03110217




000
SAGM31 PGUM 240355
MTRGUM
METAR PGUM 240354Z 09011KT 10SM BKN034 BKN048 31/22 A2983 RMK AO2
SLP091 T03110217





000
SAGM31 PGUM 240255
MTRGUM
METAR PGUM 240254Z 06012G17KT 10SM SCT032 32/22 A2984 RMK AO2 SLP097
T03170222 58020





000
SAGM31 PGUM 240255
MTRGUM
METAR PGUM 240254Z 06012G17KT 10SM SCT032 32/22 A2984 RMK AO2 SLP097
T03170222 58020




000
SAGM31 PGUM 240155
MTRGUM
METAR PGUM 240154Z 10010KT 10SM SCT034 32/21 A2986 RMK AO2 SLP104
T03170211




000
SAGM31 PGUM 240155
MTRGUM
METAR PGUM 240154Z 10010KT 10SM SCT034 32/21 A2986 RMK AO2 SLP104
T03170211





000
SAGM31 PGUM 240055
MTRGUM
METAR PGUM 240054Z 05011KT 10SM BKN034 31/22 A2988 RMK AO2 SLP111
T03110217




000
SAGM31 PGUM 240055
MTRGUM
METAR PGUM 240054Z 05011KT 10SM BKN034 31/22 A2988 RMK AO2 SLP111
T03110217





000
SAGM31 PGUM 232355
MTRGUM
METAR PGUM 232354Z 06010KT 10SM FEW030 31/21 A2990 RMK AO2 SLP117
T03060211 10306 20250 50008




000
SAGM31 PGUM 232355
MTRGUM
METAR PGUM 232354Z 06010KT 10SM FEW030 31/21 A2990 RMK AO2 SLP117
T03060211 10306 20250 50008





000
SAGM31 PGUM 232255
MTRGUM
METAR PGUM 232254Z 09010KT 10SM FEW020 29/22 A2991 RMK AO2 SLP119
T02940222




000
SAGM31 PGUM 232255
MTRGUM
METAR PGUM 232254Z 09010KT 10SM FEW020 29/22 A2991 RMK AO2 SLP119
T02940222





000
SAGM31 PGUM 232155
MTRGUM
METAR PGUM 232154Z 06007KT 10SM CLR 28/23 A2989 RMK AO2 SLP114
T02830233





000
SAGM31 PGUM 232155
MTRGUM
METAR PGUM 232154Z 06007KT 10SM CLR 28/23 A2989 RMK AO2 SLP114
T02830233




000
SAGM31 PGUM 232055
MTRGUM
METAR PGUM 232054Z 05005KT 10SM CLR 26/23 A2988 RMK AO2 SLP109
T02610228 53011





000
SAGM31 PGUM 232055
MTRGUM
METAR PGUM 232054Z 05005KT 10SM CLR 26/23 A2988 RMK AO2 SLP109
T02610228 53011




000
SAGM31 PGUM 231955
MTRGUM
METAR PGUM 231954Z 05005KT 10SM FEW047 SCT060 26/23 A2987 RMK AO2
SLP105 T02560228




000
SAGM31 PGUM 231955
MTRGUM
METAR PGUM 231954Z 05005KT 10SM FEW047 SCT060 26/23 A2987 RMK AO2
SLP105 T02560228





000
SAGM31 PGUM 231855
MTRGUM
METAR PGUM 231854Z 06004KT 10SM CLR 26/22 A2985 RMK AO2 SLP100
T02560222





000
SAGM31 PGUM 231855
MTRGUM
METAR PGUM 231854Z 06004KT 10SM CLR 26/22 A2985 RMK AO2 SLP100
T02560222




000
SAGM31 PGUM 231755
MTRGUM
METAR PGUM 231754Z 05006KT 10SM FEW022 26/22 A2984 RMK AO2 SLP098
T02560217 10278 20256 56009





000
SAGM31 PGUM 231755
MTRGUM
METAR PGUM 231754Z 05006KT 10SM FEW022 26/22 A2984 RMK AO2 SLP098
T02560217 10278 20256 56009




000
SAGM31 PGUM 231655
MTRGUM
METAR PGUM 231654Z 06007KT 10SM FEW022 SCT035 27/22 A2985 RMK AO2
SLP099 T02670217




000
SAGM31 PGUM 231655
MTRGUM
METAR PGUM 231654Z 06007KT 10SM FEW022 SCT035 27/22 A2985 RMK AO2
SLP099 T02670217





000
SAGM31 PGUM 231555
MTRGUM
METAR PGUM 231554Z 06006KT 10SM FEW023 SCT035 27/22 A2986 RMK AO2
SLP102 T02720217




000
SAGM31 PGUM 231555
MTRGUM
METAR PGUM 231554Z 06006KT 10SM FEW023 SCT035 27/22 A2986 RMK AO2
SLP102 T02720217





000
SAGM31 PGUM 231455
MTRGUM
METAR PGUM 231454Z 07006KT 10SM SCT025 SCT032 BKN038 27/22 A2987 RMK
AO2 SLP108 T02720222 58011




000
SAGM31 PGUM 231455
MTRGUM
METAR PGUM 231454Z 07006KT 10SM SCT025 SCT032 BKN038 27/22 A2987 RMK
AO2 SLP108 T02720222 58011





000
SAGM31 PGUM 231355
MTRGUM
METAR PGUM 231354Z 07008KT 10SM SCT024 SCT031 BKN060 28/22 A2989 RMK
AO2 SLP114 T02780222 403170261




000
SAGM31 PGUM 231355
MTRGUM
METAR PGUM 231354Z 07008KT 10SM SCT024 SCT031 BKN060 28/22 A2989 RMK
AO2 SLP114 T02780222 403170261





000
SAGM31 PGUM 231255
MTRGUM
METAR PGUM 231254Z 09010KT 10SM FEW028 SCT055 28/22 A2992 RMK AO2
SLP122 T02780217




000
SAGM31 PGUM 231255
MTRGUM
METAR PGUM 231254Z 09010KT 10SM FEW028 SCT055 28/22 A2992 RMK AO2
SLP122 T02780217





000
SAGM31 PGUM 231155
MTRGUM
METAR PGUM 231154Z 08009KT 10SM FEW028 28/22 A2991 RMK AO2 SLP119
70001 T02780217 10311 20278 51010




000
SAGM31 PGUM 231155
MTRGUM
METAR PGUM 231154Z 08009KT 10SM FEW028 28/22 A2991 RMK AO2 SLP119
70001 T02780217 10311 20278 51010





000
SAGM31 PGUM 231055
MTRGUM
METAR PGUM 231054Z 08010KT 10SM FEW031 28/21 A2990 RMK AO2 SLP118
T02780211




000
SAGM31 PGUM 231055
MTRGUM
METAR PGUM 231054Z 08010KT 10SM FEW031 28/21 A2990 RMK AO2 SLP118
T02780211





000
SAGM31 PGUM 230955
MTRGUM
METAR PGUM 230954Z 08010KT 10SM FEW028 SCT044 SCT055 28/22 A2989 RMK
AO2 SLP113 T02780217




000
SAGM31 PGUM 230955
MTRGUM
METAR PGUM 230954Z 08010KT 10SM FEW028 SCT044 SCT055 28/22 A2989 RMK
AO2 SLP113 T02780217





000
SAGM31 PGUM 230855
MTRGUM
METAR PGUM 230854Z 06009KT 10SM FEW026 28/22 A2987 RMK AO2 SLP108
T02830217 53010




000
SAGM31 PGUM 230855
MTRGUM
METAR PGUM 230854Z 06009KT 10SM FEW026 28/22 A2987 RMK AO2 SLP108
T02830217 53010





000
SAGM31 PGUM 230755
MTRGUM
METAR PGUM 230754Z 08013KT 10SM FEW030 29/22 A2985 RMK AO2 SLP101
T02890217




000
SAGM31 PGUM 230755
MTRGUM
METAR PGUM 230754Z 08013KT 10SM FEW030 29/22 A2985 RMK AO2 SLP101
T02890217





000
SAGM31 PGUM 230655
MTRGUM
METAR PGUM 230654Z 07010G19KT 10SM FEW033 29/21 A2984 RMK AO2 SLP097
T02940211




000
SAGM31 PGUM 230655
MTRGUM
METAR PGUM 230654Z 07010G19KT 10SM FEW033 29/21 A2984 RMK AO2 SLP097
T02940211





000
SAGM31 PGUM 230555
MTRGUM
METAR PGUM 230554Z 06013KT 10SM FEW030 31/21 A2984 RMK AO2 SLP097
T03060211 10317 20300 56014




000
SAGM31 PGUM 230555
MTRGUM
METAR PGUM 230554Z 06013KT 10SM FEW030 31/21 A2984 RMK AO2 SLP097
T03060211 10317 20300 56014





000
SAGM31 PGUM 230455
MTRGUM
METAR PGUM 230454Z 09013G20KT 10SM FEW030 31/20 A2984 RMK AO2 SLP098
T03110200





000
SAGM31 PGUM 230455
MTRGUM
METAR PGUM 230454Z 09013G20KT 10SM FEW030 31/20 A2984 RMK AO2 SLP098
T03110200




000
SAGM31 PGUM 230355
MTRGUM
METAR PGUM 230354Z 08013G19KT 10SM FEW030 31/19 A2986 RMK AO2 SLP102
T03110194





000
SAGM31 PGUM 230355
MTRGUM
METAR PGUM 230354Z 08013G19KT 10SM FEW030 31/19 A2986 RMK AO2 SLP102
T03110194




000
SAGM31 PGUM 230255
MTRGUM
METAR PGUM 230254Z 07013G19KT 10SM FEW030 31/19 A2988 RMK AO2 SLP111
T03060194 58021




000
SAGM31 PGUM 230155
MTRGUM
METAR PGUM 230154Z 09013G22KT 10SM FEW037 31/19 A2991 RMK AO2 SLP121
T03060194




000
SAGM31 PGUM 230155
MTRGUM
METAR PGUM 230154Z 09013G22KT 10SM FEW037 31/19 A2991 RMK AO2 SLP121
T03060194





000
SAGM31 PGUM 230055
MTRGUM
METAR PGUM 230054Z 09015G20KT 10SM FEW020 31/21 A2993 RMK AO2 SLP128
T03060206





000
SAGM31 PGUM 230055
MTRGUM
METAR PGUM 230054Z 09015G20KT 10SM FEW020 31/21 A2993 RMK AO2 SLP128
T03060206




000
SAGM31 PGUM 222355
MTRGUM
METAR PGUM 222354Z 09012G17KT 10SM CLR 30/18 A2995 RMK AO2 SLP132
T03000183 10300 20261 50002




000
SAGM31 PGUM 222355
MTRGUM
METAR PGUM 222354Z 09012G17KT 10SM CLR 30/18 A2995 RMK AO2 SLP132
T03000183 10300 20261 50002





000
SAGM31 PGUM 222255
MTRGUM
METAR PGUM 222254Z 08012G18KT 10SM FEW020 29/20 A2995 RMK AO2 SLP133
T02940200





000
SAGM31 PGUM 222255
MTRGUM
METAR PGUM 222254Z 08012G18KT 10SM FEW020 29/20 A2995 RMK AO2 SLP133
T02940200




000
SAGM31 PGUM 222155
MTRGUM
METAR PGUM 222154Z 06010KT 10SM FEW022 28/21 A2995 RMK AO2 SLP133
T02830206




000
SAGM31 PGUM 222155
MTRGUM
METAR PGUM 222154Z 06010KT 10SM FEW022 28/21 A2995 RMK AO2 SLP133
T02830206





000
SAGM31 PGUM 222055
MTRGUM
METAR PGUM 222054Z 05006KT 10SM FEW022 26/21 A2994 RMK AO2 SLP130
T02610206 53013




000
SAGM31 PGUM 222055
MTRGUM
METAR PGUM 222054Z 05006KT 10SM FEW022 26/21 A2994 RMK AO2 SLP130
T02610206 53013





000
SAGM31 PGUM 221955
MTRGUM
METAR PGUM 221954Z 07007KT 10SM CLR 26/21 A2993 RMK AO2 SLP126
T02610211





000
SAGM31 PGUM 221955
MTRGUM
METAR PGUM 221954Z 07007KT 10SM CLR 26/21 A2993 RMK AO2 SLP126
T02610211




000
SAGM31 PGUM 221855
MTRGUM
METAR PGUM 221854Z 07007KT 10SM CLR 27/22 A2991 RMK AO2 SLP121
T02670217




000
SAGM31 PGUM 221855
MTRGUM
METAR PGUM 221854Z 07007KT 10SM CLR 27/22 A2991 RMK AO2 SLP121
T02670217





000
SAGM31 PGUM 221755
MTRGUM
METAR PGUM 221754Z 08006KT 10SM CLR 27/23 A2990 RMK AO2 SLP117 60001
T02670228 10278 20267 56005




000
SAGM31 PGUM 221755
MTRGUM
METAR PGUM 221754Z 08006KT 10SM CLR 27/23 A2990 RMK AO2 SLP117 60001
T02670228 10278 20267 56005





000
SAGM31 PGUM 221655
MTRGUM
METAR PGUM 221654Z 07008KT 10SM CLR 27/23 A2990 RMK AO2 SLP118
T02670228




000
SAGM31 PGUM 221655
MTRGUM
METAR PGUM 221654Z 07008KT 10SM CLR 27/23 A2990 RMK AO2 SLP118
T02670228





000
SAGM31 PGUM 221555
MTRGUM
METAR PGUM 221554Z 06007KT 10SM FEW021 SCT033 SCT042 27/24 A2991 RMK
AO2 RAB32E52 SLP119 P0001 T02670239




000
SAGM31 PGUM 221555
MTRGUM
METAR PGUM 221554Z 06007KT 10SM FEW021 SCT033 SCT042 27/24 A2991 RMK
AO2 RAB32E52 SLP119 P0001 T02670239





000
SAGM31 PGUM 221455
MTRGUM
METAR PGUM 221454Z 07007KT 10SM CLR 27/23 A2992 RMK AO2 SLP123
T02720233 58012




000
SAGM31 PGUM 221455
MTRGUM
METAR PGUM 221454Z 07007KT 10SM CLR 27/23 A2992 RMK AO2 SLP123
T02720233 58012





000
SAGM31 PGUM 221355
MTRGUM
METAR PGUM 221354Z 08008KT 10SM CLR 27/23 A2993 RMK AO2 SLP127
T02720228 403110272




000
SAGM31 PGUM 221355
MTRGUM
METAR PGUM 221354Z 08008KT 10SM CLR 27/23 A2993 RMK AO2 SLP127
T02720228 403110272





000
SAGM31 PGUM 221255
MTRGUM
METAR PGUM 221254Z 08007KT 10SM FEW050 28/23 A2995 RMK AO2 SLP133
T02780228




000
SAGM31 PGUM 221255
MTRGUM
METAR PGUM 221254Z 08007KT 10SM FEW050 28/23 A2995 RMK AO2 SLP133
T02780228





000
SAGM31 PGUM 221229
MTRGUM
METAR PGUM 221154Z COR 09007KT 10SM FEW060 27/23 A2995 RMK AO2
SLP135 60001 T02720233 10306 20272 53013




000
SAGM31 PGUM 221229
MTRGUM
METAR PGUM 221154Z COR 09007KT 10SM FEW060 27/23 A2995 RMK AO2
SLP135 60001 T02720233 10306 20272 53013





000
SAGM31 PGUM 221155
MTRGUM
METAR PGUM 221154Z 09007KT 10SM CLR 27/23 A2995 RMK AO2 SLP135 60000
T02720233 10306 20272 53013




000
SAGM31 PGUM 221155
MTRGUM
METAR PGUM 221154Z 09007KT 10SM CLR 27/23 A2995 RMK AO2 SLP135 60000
T02720233 10306 20272 53013





000
SAGM31 PGUM 221055
MTRGUM
METAR PGUM 221054Z 08008KT 10SM FEW020 28/23 A2994 RMK AO2 SLP130
T02780228




000
SAGM31 PGUM 221055
MTRGUM
METAR PGUM 221054Z 08008KT 10SM FEW020 28/23 A2994 RMK AO2 SLP130
T02780228





000
SAGM31 PGUM 220955
MTRGUM
METAR PGUM 220954Z 08007KT 10SM FEW060 28/23 A2992 RMK AO2 SLP124
T02780233




000
SAGM31 PGUM 220955
MTRGUM
METAR PGUM 220954Z 08007KT 10SM FEW060 28/23 A2992 RMK AO2 SLP124
T02780233





000
SAGM31 PGUM 220855
MTRGUM
METAR PGUM 220854Z 09008KT 10SM FEW065 27/24 A2991 RMK AO2 RAB16E26
SLP121 P0000 60000 T02720239 53010





000
SAGM31 PGUM 220855
MTRGUM
METAR PGUM 220854Z 09008KT 10SM FEW065 27/24 A2991 RMK AO2 RAB16E26
SLP121 P0000 60000 T02720239 53010




000
SAGM31 PGUM 220755
MTRGUM
METAR PGUM 220754Z 08008KT 10SM SCT023 SCT030 29/23 A2989 RMK AO2
SLP115 T02940233





000
SAGM31 PGUM 220755
MTRGUM
METAR PGUM 220754Z 08008KT 10SM SCT023 SCT030 29/23 A2989 RMK AO2
SLP115 T02940233




000
SAGM31 PGUM 220655
MTRGUM
METAR PGUM 220654Z 07012KT 10SM FEW026 30/23 A2988 RMK AO2 SLP112
T03000228




000
SAGM31 PGUM 220655
MTRGUM
METAR PGUM 220654Z 07012KT 10SM FEW026 30/23 A2988 RMK AO2 SLP112
T03000228





000
SAGM31 PGUM 220555
MTRGUM
METAR PGUM 220554Z 09009KT 10SM SCT055 31/22 A2988 RMK AO2 SLP111
T03060222 10311 20300 56013




000
SAGM31 PGUM 220555
MTRGUM
METAR PGUM 220554Z 09009KT 10SM SCT055 31/22 A2988 RMK AO2 SLP111
T03060222 10311 20300 56013





000
SAGM31 PGUM 220455
MTRGUM
METAR PGUM 220454Z 08012KT 10SM SCT030 BKN038 31/23 A2989 RMK AO2
SLP114 T03110228




000
SAGM31 PGUM 220455
MTRGUM
METAR PGUM 220454Z 08012KT 10SM SCT030 BKN038 31/23 A2989 RMK AO2
SLP114 T03110228





000
SAGM31 PGUM 220355
MTRGUM
METAR PGUM 220354Z 09009KT 10SM SCT028 SCT037 31/22 A2990 RMK AO2
SLP117 T03110222




000
SAGM31 PGUM 220355
MTRGUM
METAR PGUM 220354Z 09009KT 10SM SCT028 SCT037 31/22 A2990 RMK AO2
SLP117 T03110222





000
SAGM31 PGUM 220255
MTRGUM
METAR PGUM 220254Z 10009G15KT 080V150 10SM SCT028 31/23 A2992 RMK
AO2 SLP124 T03060228 58019




000
SAGM31 PGUM 220255
MTRGUM
METAR PGUM 220254Z 10009G15KT 080V150 10SM SCT028 31/23 A2992 RMK
AO2 SLP124 T03060228 58019





000
SAGM31 PGUM 220155
MTRGUM
METAR PGUM 220154Z 09010G16KT 10SM SCT027 31/23 A2995 RMK AO2 SLP134
T03060228




000
SAGM31 PGUM 220155
MTRGUM
METAR PGUM 220154Z 09010G16KT 10SM SCT027 31/23 A2995 RMK AO2 SLP134
T03060228





000
SAGM31 PGUM 220055
MTRGUM
METAR PGUM 220054Z 10009G17KT 070V130 10SM SCT029 31/23 A2997 RMK
AO2 SLP139 T03060228




000
SAGM31 PGUM 212355
MTRGUM
METAR PGUM 212354Z 10012G16KT 10SM FEW025 30/23 A2998 RMK AO2 SLP144
T03000228 10300 20272 51012




000
SAGM31 PGUM 212355
MTRGUM
METAR PGUM 212354Z 10012G16KT 10SM FEW025 30/23 A2998 RMK AO2 SLP144
T03000228 10300 20272 51012





000
SAGM31 PGUM 212255
MTRGUM
METAR PGUM 212254Z 10011G18KT 10SM FEW023 29/23 A2997 RMK AO2 SLP142
T02940233




000
SAGM31 PGUM 212255
MTRGUM
METAR PGUM 212254Z 10011G18KT 10SM FEW023 29/23 A2997 RMK AO2 SLP142
T02940233





000
SAGM31 PGUM 212155
MTRGUM
METAR PGUM 212154Z 10011G15KT 10SM FEW023 29/23 A2996 RMK AO2 SLP138
T02890233




000
SAGM31 PGUM 212155
MTRGUM
METAR PGUM 212154Z 10011G15KT 10SM FEW023 29/23 A2996 RMK AO2 SLP138
T02890233





000
SAGM31 PGUM 212055
MTRGUM
METAR PGUM 212054Z 10010G15KT 10SM FEW024 28/23 A2994 RMK AO2 SLP131
T02780228 53015





000
SAGM31 PGUM 212055
MTRGUM
METAR PGUM 212054Z 10010G15KT 10SM FEW024 28/23 A2994 RMK AO2 SLP131
T02780228 53015




000
SAGM31 PGUM 211955
MTRGUM
METAR PGUM 211954Z 10007KT 10SM FEW018 SCT029 SCT035 27/23 A2993 RMK
AO2 SLP126 T02720233





000
SAGM31 PGUM 211955
MTRGUM
METAR PGUM 211954Z 10007KT 10SM FEW018 SCT029 SCT035 27/23 A2993 RMK
AO2 SLP126 T02720233




000
SAGM31 PGUM 211942
MTRGUM
SPECI PGUM 211941Z 10008KT 10SM FEW018 SCT026 BKN037 27/24 A2992 RMK
AO2




000
SAGM31 PGUM 211942
MTRGUM
SPECI PGUM 211941Z 10008KT 10SM FEW018 SCT026 BKN037 27/24 A2992 RMK
AO2





000
SAGM31 PGUM 211927
MTRGUM
SPECI PGUM 211926Z 11007KT 10SM SCT018 BKN026 BKN038 27/24 A2992 RMK
AO2




000
SAGM31 PGUM 211927
MTRGUM
SPECI PGUM 211926Z 11007KT 10SM SCT018 BKN026 BKN038 27/24 A2992 RMK
AO2





000
SAGM31 PGUM 211855
MTRGUM
METAR PGUM 211854Z 10007KT 10SM CLR 27/23 A2991 RMK AO2 SLP119
T02720233





000
SAGM31 PGUM 211855
MTRGUM
METAR PGUM 211854Z 10007KT 10SM CLR 27/23 A2991 RMK AO2 SLP119
T02720233




000
SAGM31 PGUM 211755
MTRGUM
METAR PGUM 211754Z 10009G18KT 10SM FEW019 28/24 A2990 RMK AO2 SLP116
60000 T02780239 10278 20272 55002





000
SAGM31 PGUM 211755
MTRGUM
METAR PGUM 211754Z 10009G18KT 10SM FEW019 28/24 A2990 RMK AO2 SLP116
60000 T02780239 10278 20272 55002




000
SAGM31 PGUM 211655
MTRGUM
METAR PGUM 211654Z 10010KT 10SM FEW019 SCT027 28/24 A2989 RMK AO2
RAB18E24 SLP115 P0000 T02780244





000
SAGM31 PGUM 211655
MTRGUM
METAR PGUM 211654Z 10010KT 10SM FEW019 SCT027 28/24 A2989 RMK AO2
RAB18E24 SLP115 P0000 T02780244




000
SAGM31 PGUM 211646
MTRGUM
SPECI PGUM 211645Z 11010KT 10SM SCT019 SCT027 BKN036 28/24 A2989 RMK
AO2 RAB18E24 P0000





000
SAGM31 PGUM 211627
MTRGUM
SPECI PGUM 211626Z 11009G16KT 10SM SCT017 BKN023 BKN035 28/24 A2989
RMK AO2 RAB18E24 P0000




000
SAGM31 PGUM 211627
MTRGUM
SPECI PGUM 211626Z 11009G16KT 10SM SCT017 BKN023 BKN035 28/24 A2989
RMK AO2 RAB18E24 P0000





000
SAGM31 PGUM 211555
MTRGUM
METAR PGUM 211554Z 10008KT 10SM FEW017 SCT026 28/24 A2990 RMK AO2
SLP116 T02780244





000
SAGM31 PGUM 211555
MTRGUM
METAR PGUM 211554Z 10008KT 10SM FEW017 SCT026 28/24 A2990 RMK AO2
SLP116 T02780244




000
SAGM31 PGUM 211541
MTRGUM
SPECI PGUM 211540Z 11008KT 10SM SCT017 SCT024 28/24 A2990 RMK AO2




000
SAGM31 PGUM 211541
MTRGUM
SPECI PGUM 211540Z 11008KT 10SM SCT017 SCT024 28/24 A2990 RMK AO2





000
SAGM31 PGUM 211519
MTRGUM
SPECI PGUM 211518Z 11010KT 10SM BKN017 BKN022 28/25 A2990 RMK AO2





000
SAGM31 PGUM 211519
MTRGUM
SPECI PGUM 211518Z 11010KT 10SM BKN017 BKN022 28/25 A2990 RMK AO2




000
SAGM31 PGUM 211455
MTRGUM
METAR PGUM 211454Z 11009KT 10SM SCT017 SCT025 28/25 A2991 RMK AO2
SLP119 T02780250 58012





000
SAGM31 PGUM 211455
MTRGUM
METAR PGUM 211454Z 11009KT 10SM SCT017 SCT025 28/25 A2991 RMK AO2
SLP119 T02780250 58012




000
SAGM31 PGUM 211433
MTRGUM
SPECI PGUM 211432Z 11007KT 10SM FEW015 SCT022 28/25 A2991 RMK AO2




000
SAGM31 PGUM 211433
MTRGUM
SPECI PGUM 211432Z 11007KT 10SM FEW015 SCT022 28/25 A2991 RMK AO2





000
SAGM31 PGUM 211413
MTRGUM
SPECI PGUM 211412Z 10005KT 10SM SCT015 BKN024 28/25 A2992 RMK AO2




000
SAGM31 PGUM 211413
MTRGUM
SPECI PGUM 211412Z 10005KT 10SM SCT015 BKN024 28/25 A2992 RMK AO2





000
SAGM31 PGUM 211355
MTRGUM
METAR PGUM 211354Z 10007KT 10SM FEW019 28/25 A2992 RMK AO2 SLP124
T02780250 403060267





000
SAGM31 PGUM 211355
MTRGUM
METAR PGUM 211354Z 10007KT 10SM FEW019 28/25 A2992 RMK AO2 SLP124
T02780250 403060267




000
SAGM31 PGUM 211255
MTRGUM
METAR PGUM 211254Z 10007KT 10SM FEW018 28/24 A2994 RMK AO2 SLP129
T02780244




000
SAGM31 PGUM 211255
MTRGUM
METAR PGUM 211254Z 10007KT 10SM FEW018 28/24 A2994 RMK AO2 SLP129
T02780244





    US Dept of Commerce
    National Oceanic and Atmospheric Administration
    National Weather Service
    1325 East West Highway
    Silver Spring, MD 20910
    Page Author: NWS Internet Services Team
Disclaimer
Information Quality
Credits
Glossary
Privacy Policy
Freedom of Information Act (FOIA)
About Us
Career Opportunities